sensor_id;sensor_type;location;lat;lon;timestamp;P1;durP1;ratioP1;P2;durP2;ratioP2
55362;SDS011;41244;49.242;9.060;2022-09-27T00:02:16;2.55;;;2.33;;
55362;SDS011;41244;49.242;9.060;2022-09-27T00:04:42;2.67;;;2.13;;
55362;SDS011;41244;49.242;9.060;2022-09-27T00:07:08;2.47;;;2.03;;
55362;SDS011;41244;49.242;9.060;2022-09-27T00:09:35;2.22;;;2.03;;
55362;SDS011;41244;49.242;9.060;2022-09-27T00:12:01;4.97;;;2.03;;
55362;SDS011;41244;49.242;9.060;2022-09-27T00:14:28;2.10;;;2.00;;
55362;SDS011;41244;49.242;9.060;2022-09-27T00:16:54;3.92;;;2.83;;
55362;SDS011;41244;49.242;9.060;2022-09-27T00:19:20;2.55;;;2.28;;
55362;SDS011;41244;49.242;9.060;2022-09-27T00:21:47;3.00;;;2.00;;
55362;SDS011;41244;49.242;9.060;2022-09-27T00:24:18;4.57;;;1.90;;
55362;SDS011;41244;49.242;9.060;2022-09-27T00:26:45;3.53;;;1.95;;
55362;SDS011;41244;49.242;9.060;2022-09-27T00:29:13;4.05;;;2.17;;
55362;SDS011;41244;49.242;9.060;2022-09-27T00:31:41;4.53;;;2.00;;
55362;SDS011;41244;49.242;9.060;2022-09-27T00:34:08;4.05;;;1.98;;
55362;SDS011;41244;49.242;9.060;2022-09-27T00:36:48;1.92;;;1.83;;
55362;SDS011;41244;49.242;9.060;2022-09-27T00:39:15;2.05;;;1.88;;
55362;SDS011;41244;49.242;9.060;2022-09-27T00:41:41;3.10;;;1.95;;
55362;SDS011;41244;49.242;9.060;2022-09-27T00:52:23;2.72;;;1.98;;
55362;SDS011;41244;49.242;9.060;2022-09-27T00:54:59;4.00;;;2.22;;
55362;SDS011;41244;49.242;9.060;2022-09-27T00:57:49;2.20;;;2.00;;
55362;SDS011;41244;49.242;9.060;2022-09-27T01:00:16;2.10;;;1.90;;
55362;SDS011;41244;49.242;9.060;2022-09-27T01:02:46;2.20;;;1.98;;
55362;SDS011;41244;49.242;9.060;2022-09-27T01:05:16;1.88;;;1.77;;
55362;SDS011;41244;49.242;9.060;2022-09-27T01:07:45;2.85;;;2.10;;
55362;SDS011;41244;49.242;9.060;2022-09-27T01:10:11;2.08;;;1.90;;
55362;SDS011;41244;49.242;9.060;2022-09-27T01:18:56;2.00;;;1.90;;
55362;SDS011;41244;49.242;9.060;2022-09-27T01:21:36;2.80;;;1.90;;
55362;SDS011;41244;49.242;9.060;2022-09-27T01:27:08;2.10;;;1.90;;
55362;SDS011;41244;49.242;9.060;2022-09-27T01:32:46;2.28;;;2.17;;
55362;SDS011;41244;49.242;9.060;2022-09-27T01:41:43;3.40;;;2.20;;
55362;SDS011;41244;49.242;9.060;2022-09-27T01:47:04;4.78;;;2.50;;
55362;SDS011;41244;49.242;9.060;2022-09-27T01:49:53;2.40;;;2.20;;
55362;SDS011;41244;49.242;9.060;2022-09-27T01:52:33;2.90;;;2.22;;
55362;SDS011;41244;49.242;9.060;2022-09-27T01:55:23;2.70;;;2.50;;
55362;SDS011;41244;49.242;9.060;2022-09-27T01:57:54;3.45;;;2.60;;
55362;SDS011;41244;49.242;9.060;2022-09-27T02:00:29;3.35;;;2.47;;
55362;SDS011;41244;49.242;9.060;2022-09-27T02:02:58;2.70;;;2.47;;
55362;SDS011;41244;49.242;9.060;2022-09-27T02:05:34;4.18;;;2.45;;
55362;SDS011;41244;49.242;9.060;2022-09-27T02:08:06;2.72;;;2.20;;
55362;SDS011;41244;49.242;9.060;2022-09-27T02:10:42;3.80;;;2.42;;
55362;SDS011;41244;49.242;9.060;2022-09-27T02:15:46;7.03;;;2.50;;
55362;SDS011;41244;49.242;9.060;2022-09-27T02:18:28;3.83;;;2.47;;
55362;SDS011;41244;49.242;9.060;2022-09-27T02:21:19;3.55;;;2.40;;
55362;SDS011;41244;49.242;9.060;2022-09-27T02:23:52;4.38;;;2.70;;
55362;SDS011;41244;49.242;9.060;2022-09-27T02:26:32;6.35;;;2.63;;
55362;SDS011;41244;49.242;9.060;2022-09-27T02:31:59;5.28;;;3.00;;
55362;SDS011;41244;49.242;9.060;2022-09-27T02:34:26;5.25;;;2.75;;
55362;SDS011;41244;49.242;9.060;2022-09-27T02:36:54;5.57;;;2.70;;
55362;SDS011;41244;49.242;9.060;2022-09-27T02:39:20;4.63;;;2.58;;
55362;SDS011;41244;49.242;9.060;2022-09-27T02:41:47;4.80;;;2.72;;
55362;SDS011;41244;49.242;9.060;2022-09-27T02:44:13;6.38;;;2.85;;
55362;SDS011;41244;49.242;9.060;2022-09-27T02:46:55;5.03;;;2.58;;
55362;SDS011;41244;49.242;9.060;2022-09-27T02:49:35;7.00;;;3.40;;
55362;SDS011;41244;49.242;9.060;2022-09-27T02:58:40;7.00;;;2.75;;
55362;SDS011;41244;49.242;9.060;2022-09-27T03:04:08;5.07;;;2.90;;
55362;SDS011;41244;49.242;9.060;2022-09-27T03:06:47;6.32;;;3.03;;
55362;SDS011;41244;49.242;9.060;2022-09-27T03:09:24;5.38;;;3.35;;
55362;SDS011;41244;49.242;9.060;2022-09-27T03:11:54;6.13;;;3.30;;
55362;SDS011;41244;49.242;9.060;2022-09-27T03:14:20;6.18;;;3.35;;
55362;SDS011;41244;49.242;9.060;2022-09-27T03:16:45;5.30;;;3.00;;
55362;SDS011;41244;49.242;9.060;2022-09-27T03:19:11;8.32;;;3.15;;
55362;SDS011;41244;49.242;9.060;2022-09-27T03:21:37;9.35;;;2.92;;
55362;SDS011;41244;49.242;9.060;2022-09-27T03:24:04;8.32;;;3.35;;
55362;SDS011;41244;49.242;9.060;2022-09-27T03:26:30;5.40;;;3.10;;
55362;SDS011;41244;49.242;9.060;2022-09-27T03:28:55;7.13;;;3.25;;
55362;SDS011;41244;49.242;9.060;2022-09-27T03:31:21;7.35;;;3.33;;
55362;SDS011;41244;49.242;9.060;2022-09-27T03:33:47;7.90;;;3.00;;
55362;SDS011;41244;49.242;9.060;2022-09-27T03:36:13;6.75;;;3.00;;
55362;SDS011;41244;49.242;9.060;2022-09-27T03:38:39;3.67;;;2.75;;
55362;SDS011;41244;49.242;9.060;2022-09-27T03:41:05;6.03;;;3.25;;
55362;SDS011;41244;49.242;9.060;2022-09-27T03:43:30;6.28;;;3.00;;
55362;SDS011;41244;49.242;9.060;2022-09-27T03:45:56;7.07;;;3.33;;
55362;SDS011;41244;49.242;9.060;2022-09-27T03:48:22;7.03;;;3.30;;
55362;SDS011;41244;49.242;9.060;2022-09-27T03:50:50;7.38;;;3.50;;
55362;SDS011;41244;49.242;9.060;2022-09-27T03:53:16;7.75;;;3.28;;
55362;SDS011;41244;49.242;9.060;2022-09-27T03:55:44;7.93;;;3.63;;
55362;SDS011;41244;49.242;9.060;2022-09-27T03:58:10;5.78;;;3.30;;
55362;SDS011;41244;49.242;9.060;2022-09-27T04:00:36;8.50;;;3.95;;
55362;SDS011;41244;49.242;9.060;2022-09-27T04:03:02;4.80;;;3.28;;
55362;SDS011;41244;49.242;9.060;2022-09-27T04:05:28;5.25;;;3.30;;
55362;SDS011;41244;49.242;9.060;2022-09-27T04:07:54;5.45;;;2.97;;
55362;SDS011;41244;49.242;9.060;2022-09-27T04:10:20;5.10;;;3.17;;
55362;SDS011;41244;49.242;9.060;2022-09-27T04:12:46;5.10;;;3.00;;
55362;SDS011;41244;49.242;9.060;2022-09-27T04:15:12;8.38;;;3.50;;
55362;SDS011;41244;49.242;9.060;2022-09-27T04:17:39;7.03;;;2.90;;
55362;SDS011;41244;49.242;9.060;2022-09-27T04:20:06;4.68;;;3.10;;
55362;SDS011;41244;49.242;9.060;2022-09-27T04:22:34;3.95;;;3.00;;
55362;SDS011;41244;49.242;9.060;2022-09-27T04:25:05;4.68;;;3.45;;
55362;SDS011;41244;49.242;9.060;2022-09-27T04:27:33;4.07;;;2.90;;
55362;SDS011;41244;49.242;9.060;2022-09-27T04:29:59;5.05;;;3.05;;
55362;SDS011;41244;49.242;9.060;2022-09-27T04:32:25;5.13;;;2.92;;
55362;SDS011;41244;49.242;9.060;2022-09-27T04:34:51;4.65;;;3.50;;
55362;SDS011;41244;49.242;9.060;2022-09-27T04:37:35;4.45;;;3.10;;
55362;SDS011;41244;49.242;9.060;2022-09-27T04:40:02;12.15;;;4.95;;
55362;SDS011;41244;49.242;9.060;2022-09-27T04:42:28;8.30;;;5.10;;
55362;SDS011;41244;49.242;9.060;2022-09-27T04:44:54;7.72;;;3.92;;
55362;SDS011;41244;49.242;9.060;2022-09-27T04:47:20;8.00;;;3.67;;
55362;SDS011;41244;49.242;9.060;2022-09-27T04:49:46;5.90;;;3.40;;
55362;SDS011;41244;49.242;9.060;2022-09-27T04:52:12;4.30;;;3.33;;
55362;SDS011;41244;49.242;9.060;2022-09-27T04:54:39;8.65;;;3.42;;
55362;SDS011;41244;49.242;9.060;2022-09-27T04:57:05;7.78;;;3.78;;
55362;SDS011;41244;49.242;9.060;2022-09-27T04:59:31;9.75;;;3.60;;
55362;SDS011;41244;49.242;9.060;2022-09-27T05:01:57;12.80;;;3.92;;
55362;SDS011;41244;49.242;9.060;2022-09-27T05:04:26;6.60;;;3.63;;
55362;SDS011;41244;49.242;9.060;2022-09-27T05:06:52;5.70;;;3.60;;
55362;SDS011;41244;49.242;9.060;2022-09-27T05:09:18;4.90;;;3.40;;
55362;SDS011;41244;49.242;9.060;2022-09-27T05:11:44;5.57;;;3.40;;
55362;SDS011;41244;49.242;9.060;2022-09-27T05:14:10;9.38;;;3.97;;
55362;SDS011;41244;49.242;9.060;2022-09-27T05:16:37;7.10;;;4.47;;
55362;SDS011;41244;49.242;9.060;2022-09-27T05:19:03;6.25;;;3.67;;
55362;SDS011;41244;49.242;9.060;2022-09-27T05:21:29;7.28;;;3.70;;
55362;SDS011;41244;49.242;9.060;2022-09-27T05:23:55;5.70;;;3.55;;
55362;SDS011;41244;49.242;9.060;2022-09-27T05:26:22;8.45;;;3.60;;
55362;SDS011;41244;49.242;9.060;2022-09-27T05:28:48;4.43;;;3.22;;
55362;SDS011;41244;49.242;9.060;2022-09-27T05:31:14;6.90;;;3.38;;
55362;SDS011;41244;49.242;9.060;2022-09-27T05:33:40;7.80;;;3.42;;
55362;SDS011;41244;49.242;9.060;2022-09-27T05:36:07;7.10;;;3.72;;
55362;SDS011;41244;49.242;9.060;2022-09-27T05:38:33;7.40;;;3.40;;
55362;SDS011;41244;49.242;9.060;2022-09-27T05:40:59;8.07;;;3.60;;
55362;SDS011;41244;49.242;9.060;2022-09-27T05:43:25;8.35;;;3.55;;
55362;SDS011;41244;49.242;9.060;2022-09-27T05:45:52;7.13;;;3.55;;
55362;SDS011;41244;49.242;9.060;2022-09-27T05:48:18;9.75;;;4.32;;
55362;SDS011;41244;49.242;9.060;2022-09-27T05:50:43;5.43;;;3.70;;
55362;SDS011;41244;49.242;9.060;2022-09-27T05:53:10;5.72;;;3.47;;
55362;SDS011;41244;49.242;9.060;2022-09-27T05:55:37;5.70;;;3.08;;
55362;SDS011;41244;49.242;9.060;2022-09-27T05:58:03;6.28;;;3.28;;
55362;SDS011;41244;49.242;9.060;2022-09-27T06:00:32;4.80;;;2.67;;
55362;SDS011;41244;49.242;9.060;2022-09-27T06:03:00;5.40;;;2.75;;
55362;SDS011;41244;49.242;9.060;2022-09-27T06:05:28;4.80;;;2.78;;
55362;SDS011;41244;49.242;9.060;2022-09-27T06:07:59;5.80;;;3.20;;
55362;SDS011;41244;49.242;9.060;2022-09-27T06:10:28;3.70;;;2.65;;
55362;SDS011;41244;49.242;9.060;2022-09-27T06:13:02;5.75;;;2.63;;
55362;SDS011;41244;49.242;9.060;2022-09-27T06:15:31;5.32;;;2.50;;
55362;SDS011;41244;49.242;9.060;2022-09-27T06:18:01;7.75;;;2.83;;
55362;SDS011;41244;49.242;9.060;2022-09-27T06:20:33;4.38;;;2.75;;
55362;SDS011;41244;49.242;9.060;2022-09-27T06:23:06;5.35;;;2.70;;
55362;SDS011;41244;49.242;9.060;2022-09-27T06:25:38;6.20;;;3.90;;
55362;SDS011;41244;49.242;9.060;2022-09-27T06:28:04;6.15;;;2.95;;
55362;SDS011;41244;49.242;9.060;2022-09-27T06:30:30;4.10;;;2.70;;
55362;SDS011;41244;49.242;9.060;2022-09-27T06:32:57;4.50;;;2.70;;
55362;SDS011;41244;49.242;9.060;2022-09-27T06:35:25;6.10;;;2.85;;
55362;SDS011;41244;49.242;9.060;2022-09-27T06:37:52;4.28;;;2.85;;
55362;SDS011;41244;49.242;9.060;2022-09-27T06:40:18;5.13;;;2.67;;
55362;SDS011;41244;49.242;9.060;2022-09-27T06:42:44;5.32;;;3.30;;
55362;SDS011;41244;49.242;9.060;2022-09-27T06:45:11;10.48;;;4.53;;
55362;SDS011;41244;49.242;9.060;2022-09-27T06:47:37;18.55;;;10.45;;
55362;SDS011;41244;49.242;9.060;2022-09-27T06:50:03;6.63;;;3.42;;
55362;SDS011;41244;49.242;9.060;2022-09-27T06:52:33;4.25;;;2.90;;
55362;SDS011;41244;49.242;9.060;2022-09-27T06:55:01;5.32;;;3.15;;
55362;SDS011;41244;49.242;9.060;2022-09-27T06:57:29;5.65;;;3.30;;
55362;SDS011;41244;49.242;9.060;2022-09-27T07:00:13;4.45;;;3.08;;
55362;SDS011;41244;49.242;9.060;2022-09-27T07:02:50;5.35;;;3.00;;
55362;SDS011;41244;49.242;9.060;2022-09-27T07:05:24;6.65;;;3.45;;
55362;SDS011;41244;49.242;9.060;2022-09-27T07:07:53;5.00;;;2.97;;
55362;SDS011;41244;49.242;9.060;2022-09-27T07:10:25;3.90;;;2.90;;
55362;SDS011;41244;49.242;9.060;2022-09-27T07:12:54;6.80;;;2.97;;
55362;SDS011;41244;49.242;9.060;2022-09-27T07:15:20;5.90;;;3.40;;
55362;SDS011;41244;49.242;9.060;2022-09-27T07:17:47;4.47;;;3.30;;
55362;SDS011;41244;49.242;9.060;2022-09-27T07:20:24;7.38;;;3.38;;
55362;SDS011;41244;49.242;9.060;2022-09-27T07:22:50;4.68;;;3.20;;
55362;SDS011;41244;49.242;9.060;2022-09-27T07:25:16;4.30;;;2.95;;
55362;SDS011;41244;49.242;9.060;2022-09-27T07:27:42;10.52;;;5.03;;
55362;SDS011;41244;49.242;9.060;2022-09-27T07:30:08;6.38;;;4.20;;
55362;SDS011;41244;49.242;9.060;2022-09-27T07:32:36;7.28;;;4.07;;
55362;SDS011;41244;49.242;9.060;2022-09-27T07:35:03;4.82;;;2.78;;
55362;SDS011;41244;49.242;9.060;2022-09-27T07:37:30;5.55;;;2.65;;
55362;SDS011;41244;49.242;9.060;2022-09-27T07:39:58;4.55;;;2.80;;
55362;SDS011;41244;49.242;9.060;2022-09-27T07:42:24;3.42;;;2.70;;
55362;SDS011;41244;49.242;9.060;2022-09-27T07:44:51;6.65;;;4.30;;
55362;SDS011;41244;49.242;9.060;2022-09-27T07:47:17;4.82;;;2.92;;
55362;SDS011;41244;49.242;9.060;2022-09-27T07:49:43;3.63;;;2.50;;
55362;SDS011;41244;49.242;9.060;2022-09-27T07:52:09;4.93;;;2.85;;
55362;SDS011;41244;49.242;9.060;2022-09-27T07:54:35;2.35;;;2.13;;
55362;SDS011;41244;49.242;9.060;2022-09-27T07:57:01;6.68;;;2.47;;
55362;SDS011;41244;49.242;9.060;2022-09-27T07:59:27;3.47;;;2.40;;
55362;SDS011;41244;49.242;9.060;2022-09-27T08:01:53;2.92;;;2.50;;
55362;SDS011;41244;49.242;9.060;2022-09-27T08:04:20;4.10;;;2.50;;
55362;SDS011;41244;49.242;9.060;2022-09-27T08:06:46;4.93;;;2.50;;
55362;SDS011;41244;49.242;9.060;2022-09-27T08:09:12;6.78;;;2.70;;
55362;SDS011;41244;49.242;9.060;2022-09-27T08:11:37;3.63;;;2.83;;
55362;SDS011;41244;49.242;9.060;2022-09-27T08:14:03;3.40;;;2.50;;
55362;SDS011;41244;49.242;9.060;2022-09-27T08:16:31;3.53;;;2.50;;
55362;SDS011;41244;49.242;9.060;2022-09-27T08:18:58;2.92;;;2.60;;
55362;SDS011;41244;49.242;9.060;2022-09-27T08:21:24;3.38;;;2.45;;
55362;SDS011;41244;49.242;9.060;2022-09-27T08:23:49;2.30;;;2.10;;
55362;SDS011;41244;49.242;9.060;2022-09-27T08:26:15;6.78;;;2.67;;
55362;SDS011;41244;49.242;9.060;2022-09-27T08:28:41;5.38;;;2.95;;
55362;SDS011;41244;49.242;9.060;2022-09-27T08:31:07;4.68;;;2.40;;
55362;SDS011;41244;49.242;9.060;2022-09-27T08:33:33;5.72;;;2.63;;
55362;SDS011;41244;49.242;9.060;2022-09-27T08:35:59;2.97;;;2.30;;
55362;SDS011;41244;49.242;9.060;2022-09-27T08:38:25;3.08;;;2.20;;
55362;SDS011;41244;49.242;9.060;2022-09-27T08:41:04;3.60;;;2.58;;
55362;SDS011;41244;49.242;9.060;2022-09-27T08:52:37;8.45;;;7.22;;
55362;SDS011;41244;49.242;9.060;2022-09-27T08:55:29;16.15;;;14.65;;
55362;SDS011;41244;49.242;9.060;2022-09-27T08:58:25;24.55;;;17.63;;
55362;SDS011;41244;49.242;9.060;2022-09-27T09:00:57;11.85;;;9.18;;
55362;SDS011;41244;49.242;9.060;2022-09-27T09:03:27;6.22;;;5.63;;
55362;SDS011;41244;49.242;9.060;2022-09-27T09:09:38;2.38;;;2.17;;
55362;SDS011;41244;49.242;9.060;2022-09-27T09:18:33;3.38;;;2.30;;
55362;SDS011;41244;49.242;9.060;2022-09-27T09:21:45;4.32;;;2.28;;
55362;SDS011;41244;49.242;9.060;2022-09-27T09:30:17;4.65;;;2.50;;
55362;SDS011;41244;49.242;9.060;2022-09-27T09:32:56;3.60;;;2.45;;
55362;SDS011;41244;49.242;9.060;2022-09-27T09:35:35;4.77;;;2.57;;
55362;SDS011;41244;49.242;9.060;2022-09-27T09:39:12;2.40;;;2.20;;
55362;SDS011;41244;49.242;9.060;2022-09-27T09:41:21;5.63;;;2.80;;
55362;SDS011;41244;49.242;9.060;2022-09-27T09:46:40;5.20;;;2.95;;
55362;SDS011;41244;49.242;9.060;2022-09-27T09:49:19;4.82;;;3.10;;
55362;SDS011;41244;49.242;9.060;2022-09-27T09:52:06;8.00;;;4.60;;
55362;SDS011;41244;49.242;9.060;2022-09-27T09:54:41;4.55;;;3.00;;
55362;SDS011;41244;49.242;9.060;2022-09-27T09:59:50;5.40;;;3.20;;
55362;SDS011;41244;49.242;9.060;2022-09-27T10:02:24;7.00;;;3.10;;
55362;SDS011;41244;49.242;9.060;2022-09-27T10:05:13;6.15;;;2.83;;
55362;SDS011;41244;49.242;9.060;2022-09-27T10:07:44;4.40;;;2.88;;
55362;SDS011;41244;49.242;9.060;2022-09-27T10:10:12;4.07;;;2.90;;
55362;SDS011;41244;49.242;9.060;2022-09-27T10:12:40;5.90;;;2.90;;
55362;SDS011;41244;49.242;9.060;2022-09-27T10:15:11;4.03;;;3.00;;
55362;SDS011;41244;49.242;9.060;2022-09-27T10:17:50;3.17;;;2.50;;
55362;SDS011;41244;49.242;9.060;2022-09-27T10:23:02;3.42;;;2.70;;
55362;SDS011;41244;49.242;9.060;2022-09-27T10:25:44;4.70;;;2.85;;
55362;SDS011;41244;49.242;9.060;2022-09-27T10:31:11;5.82;;;2.90;;
55362;SDS011;41244;49.242;9.060;2022-09-27T10:36:41;7.43;;;4.07;;
55362;SDS011;41244;49.242;9.060;2022-09-27T10:39:19;6.07;;;3.20;;
55362;SDS011;41244;49.242;9.060;2022-09-27T10:41:47;6.88;;;3.50;;
55362;SDS011;41244;49.242;9.060;2022-09-27T10:44:26;5.70;;;3.45;;
55362;SDS011;41244;49.242;9.060;2022-09-27T10:47:00;6.82;;;3.72;;
55362;SDS011;41244;49.242;9.060;2022-09-27T10:49:36;11.07;;;3.90;;
55362;SDS011;41244;49.242;9.060;2022-09-27T10:52:05;7.88;;;3.60;;
55362;SDS011;41244;49.242;9.060;2022-09-27T10:54:33;6.90;;;3.92;;
55362;SDS011;41244;49.242;9.060;2022-09-27T10:59:39;15.02;;;8.80;;
55362;SDS011;41244;49.242;9.060;2022-09-27T11:02:19;5.88;;;3.92;;
55362;SDS011;41244;49.242;9.060;2022-09-27T11:07:53;5.53;;;3.90;;
55362;SDS011;41244;49.242;9.060;2022-09-27T11:10:28;4.90;;;3.13;;
55362;SDS011;41244;49.242;9.060;2022-09-27T11:13:17;7.85;;;4.05;;
55362;SDS011;41244;49.242;9.060;2022-09-27T11:43:49;4.03;;;2.40;;
55362;SDS011;41244;49.242;9.060;2022-09-27T11:58:29;5.97;;;3.50;;
55362;SDS011;41244;49.242;9.060;2022-09-27T12:07:29;4.25;;;2.55;;
55362;SDS011;41244;49.242;9.060;2022-09-27T12:10:15;2.08;;;1.90;;
55362;SDS011;41244;49.242;9.060;2022-09-27T12:12:43;2.10;;;1.73;;
55362;SDS011;41244;49.242;9.060;2022-09-27T12:15:23;1.60;;;1.50;;
55362;SDS011;41244;49.242;9.060;2022-09-27T12:20:53;2.05;;;1.90;;
55362;SDS011;41244;49.242;9.060;2022-09-27T12:23:21;1.80;;;1.67;;
55362;SDS011;41244;49.242;9.060;2022-09-27T12:25:54;2.50;;;2.00;;
55362;SDS011;41244;49.242;9.060;2022-09-27T12:36:52;1.88;;;1.50;;
55362;SDS011;41244;49.242;9.060;2022-09-27T12:39:37;4.35;;;1.90;;
55362;SDS011;41244;49.242;9.060;2022-09-27T12:42:24;1.80;;;1.70;;
55362;SDS011;41244;49.242;9.060;2022-09-27T12:44:56;1.90;;;1.80;;
55362;SDS011;41244;49.242;9.060;2022-09-27T12:47:38;1.88;;;1.60;;
55362;SDS011;41244;49.242;9.060;2022-09-27T12:50:29;3.30;;;2.75;;
55362;SDS011;41244;49.242;9.060;2022-09-27T12:53:19;2.70;;;1.88;;
55362;SDS011;41244;49.242;9.060;2022-09-27T12:56:08;2.05;;;1.80;;
55362;SDS011;41244;49.242;9.060;2022-09-27T13:14:04;2.58;;;1.73;;
55362;SDS011;41244;49.242;9.060;2022-09-27T13:16:40;2.72;;;1.90;;
55362;SDS011;41244;49.242;9.060;2022-09-27T13:22:03;2.80;;;2.10;;
55362;SDS011;41244;49.242;9.060;2022-09-27T13:29:52;2.38;;;2.17;;
55362;SDS011;41244;49.242;9.060;2022-09-27T13:32:40;2.47;;;2.20;;
55362;SDS011;41244;49.242;9.060;2022-09-27T13:38:00;7.80;;;4.95;;
55362;SDS011;41244;49.242;9.060;2022-09-27T13:40:31;3.13;;;2.60;;
55362;SDS011;41244;49.242;9.060;2022-09-27T13:45:55;2.88;;;2.25;;
55362;SDS011;41244;49.242;9.060;2022-09-27T13:50:51;3.40;;;2.30;;
55362;SDS011;41244;49.242;9.060;2022-09-27T13:53:36;4.18;;;2.70;;
55362;SDS011;41244;49.242;9.060;2022-09-27T13:56:04;4.88;;;3.15;;
55362;SDS011;41244;49.242;9.060;2022-09-27T14:01:25;4.47;;;2.20;;
55362;SDS011;41244;49.242;9.060;2022-09-27T14:04:20;4.22;;;2.30;;
55362;SDS011;41244;49.242;9.060;2022-09-27T14:07:11;5.85;;;2.58;;
55362;SDS011;41244;49.242;9.060;2022-09-27T14:09:39;3.10;;;2.35;;
55362;SDS011;41244;49.242;9.060;2022-09-27T14:12:14;5.63;;;2.95;;
55362;SDS011;41244;49.242;9.060;2022-09-27T14:14:47;3.42;;;2.47;;
55362;SDS011;41244;49.242;9.060;2022-09-27T14:17:14;2.58;;;2.15;;
55362;SDS011;41244;49.242;9.060;2022-09-27T14:19:41;4.20;;;2.42;;
55362;SDS011;41244;49.242;9.060;2022-09-27T14:24:48;2.63;;;2.42;;
55362;SDS011;41244;49.242;9.060;2022-09-27T14:27:28;3.13;;;2.60;;
55362;SDS011;41244;49.242;9.060;2022-09-27T14:30:00;2.33;;;2.10;;
55362;SDS011;41244;49.242;9.060;2022-09-27T14:32:52;3.30;;;1.95;;
55362;SDS011;41244;49.242;9.060;2022-09-27T14:35:21;3.05;;;2.13;;
55362;SDS011;41244;49.242;9.060;2022-09-27T14:38:09;3.50;;;2.03;;
55362;SDS011;41244;49.242;9.060;2022-09-27T14:40:53;2.35;;;2.15;;
55362;SDS011;41244;49.242;9.060;2022-09-27T14:43:26;2.75;;;1.80;;
55362;SDS011;41244;49.242;9.060;2022-09-27T14:45:57;2.80;;;2.60;;
55362;SDS011;41244;49.242;9.060;2022-09-27T14:48:35;3.08;;;2.00;;
55362;SDS011;41244;49.242;9.060;2022-09-27T14:51:03;3.83;;;2.00;;
55362;SDS011;41244;49.242;9.060;2022-09-27T14:53:45;5.78;;;5.28;;
55362;SDS011;41244;49.242;9.060;2022-09-27T14:56:26;3.45;;;2.30;;
55362;SDS011;41244;49.242;9.060;2022-09-27T14:59:01;5.28;;;4.45;;
55362;SDS011;41244;49.242;9.060;2022-09-27T15:01:50;2.38;;;2.17;;
55362;SDS011;41244;49.242;9.060;2022-09-27T15:04:16;2.83;;;2.40;;
55362;SDS011;41244;49.242;9.060;2022-09-27T15:06:44;4.53;;;2.70;;
55362;SDS011;41244;49.242;9.060;2022-09-27T15:09:14;3.63;;;2.17;;
55362;SDS011;41244;49.242;9.060;2022-09-27T15:11:41;1.90;;;1.80;;
55362;SDS011;41244;49.242;9.060;2022-09-27T15:14:15;2.25;;;2.05;;
55362;SDS011;41244;49.242;9.060;2022-09-27T15:16:43;2.20;;;2.00;;
55362;SDS011;41244;49.242;9.060;2022-09-27T15:21:53;2.10;;;1.90;;
55362;SDS011;41244;49.242;9.060;2022-09-27T15:24:43;1.70;;;1.60;;
55362;SDS011;41244;49.242;9.060;2022-09-27T15:29:52;2.40;;;2.20;;
55362;SDS011;41244;49.242;9.060;2022-09-27T15:32:26;1.55;;;1.55;;
55362;SDS011;41244;49.242;9.060;2022-09-27T15:34:53;3.50;;;2.17;;
55362;SDS011;41244;49.242;9.060;2022-09-27T15:37:25;2.08;;;1.98;;
55362;SDS011;41244;49.242;9.060;2022-09-27T15:39:54;1.98;;;1.88;;
55362;SDS011;41244;49.242;9.060;2022-09-27T15:42:21;2.25;;;2.03;;
55362;SDS011;41244;49.242;9.060;2022-09-27T15:44:54;14.13;;;6.65;;
55362;SDS011;41244;49.242;9.060;2022-09-27T15:50:30;3.03;;;2.45;;
55362;SDS011;41244;49.242;9.060;2022-09-27T15:52:53;2.50;;;2.28;;
55362;SDS011;41244;49.242;9.060;2022-09-27T15:55:22;3.70;;;2.20;;
55362;SDS011;41244;49.242;9.060;2022-09-27T15:57:52;3.38;;;1.92;;
55362;SDS011;41244;49.242;9.060;2022-09-27T16:00:23;2.13;;;1.90;;
55362;SDS011;41244;49.242;9.060;2022-09-27T16:02:49;2.55;;;2.20;;
55362;SDS011;41244;49.242;9.060;2022-09-27T16:05:14;1.95;;;1.73;;
55362;SDS011;41244;49.242;9.060;2022-09-27T16:07:40;2.35;;;2.15;;
55362;SDS011;41244;49.242;9.060;2022-09-27T16:10:16;4.65;;;2.55;;
55362;SDS011;41244;49.242;9.060;2022-09-27T16:12:45;4.00;;;3.05;;
55362;SDS011;41244;49.242;9.060;2022-09-27T16:15:12;5.25;;;3.20;;
55362;SDS011;41244;49.242;9.060;2022-09-27T16:17:39;6.05;;;3.90;;
55362;SDS011;41244;49.242;9.060;2022-09-27T16:20:08;6.22;;;3.22;;
55362;SDS011;41244;49.242;9.060;2022-09-27T16:22:45;6.85;;;4.00;;
55362;SDS011;41244;49.242;9.060;2022-09-27T16:25:11;4.10;;;2.70;;
55362;SDS011;41244;49.242;9.060;2022-09-27T16:27:37;4.78;;;2.83;;
55362;SDS011;41244;49.242;9.060;2022-09-27T16:30:03;7.30;;;4.35;;
55362;SDS011;41244;49.242;9.060;2022-09-27T16:32:29;5.65;;;3.38;;
55362;SDS011;41244;49.242;9.060;2022-09-27T16:34:55;3.53;;;2.75;;
55362;SDS011;41244;49.242;9.060;2022-09-27T16:37:21;5.10;;;2.90;;
55362;SDS011;41244;49.242;9.060;2022-09-27T16:39:47;6.03;;;4.57;;
55362;SDS011;41244;49.242;9.060;2022-09-27T16:42:13;5.28;;;2.70;;
55362;SDS011;41244;49.242;9.060;2022-09-27T16:44:39;4.18;;;3.03;;
55362;SDS011;41244;49.242;9.060;2022-09-27T16:47:05;6.07;;;3.45;;
55362;SDS011;41244;49.242;9.060;2022-09-27T16:49:34;5.88;;;3.00;;
55362;SDS011;41244;49.242;9.060;2022-09-27T16:52:18;3.85;;;2.90;;
55362;SDS011;41244;49.242;9.060;2022-09-27T16:54:43;3.85;;;2.92;;
55362;SDS011;41244;49.242;9.060;2022-09-27T16:57:09;3.30;;;2.80;;
55362;SDS011;41244;49.242;9.060;2022-09-27T16:59:35;3.53;;;2.88;;
55362;SDS011;41244;49.242;9.060;2022-09-27T17:02:01;4.38;;;2.60;;
55362;SDS011;41244;49.242;9.060;2022-09-27T17:04:29;2.88;;;2.58;;
55362;SDS011;41244;49.242;9.060;2022-09-27T17:06:55;2.88;;;2.25;;
55362;SDS011;41244;49.242;9.060;2022-09-27T17:09:21;2.60;;;2.17;;
55362;SDS011;41244;49.242;9.060;2022-09-27T17:11:48;2.40;;;2.20;;
55362;SDS011;41244;49.242;9.060;2022-09-27T17:14:14;3.47;;;2.60;;
55362;SDS011;41244;49.242;9.060;2022-09-27T17:16:41;2.40;;;2.20;;
55362;SDS011;41244;49.242;9.060;2022-09-27T17:19:08;3.75;;;2.45;;
55362;SDS011;41244;49.242;9.060;2022-09-27T17:21:35;3.35;;;2.30;;
55362;SDS011;41244;49.242;9.060;2022-09-27T17:24:01;3.03;;;2.35;;
55362;SDS011;41244;49.242;9.060;2022-09-27T17:26:27;3.63;;;2.20;;
55362;SDS011;41244;49.242;9.060;2022-09-27T17:28:55;4.95;;;3.85;;
55362;SDS011;41244;49.242;9.060;2022-09-27T17:31:23;5.43;;;3.83;;
55362;SDS011;41244;49.242;9.060;2022-09-27T17:33:50;3.97;;;3.33;;
55362;SDS011;41244;49.242;9.060;2022-09-27T17:36:21;2.80;;;2.60;;
55362;SDS011;41244;49.242;9.060;2022-09-27T17:38:50;2.67;;;2.47;;
55362;SDS011;41244;49.242;9.060;2022-09-27T17:41:17;4.03;;;2.40;;
55362;SDS011;41244;49.242;9.060;2022-09-27T17:43:45;4.63;;;2.72;;
55362;SDS011;41244;49.242;9.060;2022-09-27T17:46:14;7.20;;;4.28;;
55362;SDS011;41244;49.242;9.060;2022-09-27T17:48:42;7.72;;;5.53;;
55362;SDS011;41244;49.242;9.060;2022-09-27T17:53:53;4.70;;;2.40;;
55362;SDS011;41244;49.242;9.060;2022-09-27T17:56:19;5.60;;;2.60;;
55362;SDS011;41244;49.242;9.060;2022-09-27T17:58:46;3.97;;;2.30;;
55362;SDS011;41244;49.242;9.060;2022-09-27T18:01:14;3.83;;;2.30;;
55362;SDS011;41244;49.242;9.060;2022-09-27T18:03:42;4.55;;;2.30;;
55362;SDS011;41244;49.242;9.060;2022-09-27T18:06:09;3.30;;;2.30;;
55362;SDS011;41244;49.242;9.060;2022-09-27T18:08:36;7.75;;;5.40;;
55362;SDS011;41244;49.242;9.060;2022-09-27T18:11:07;6.00;;;3.63;;
55362;SDS011;41244;49.242;9.060;2022-09-27T18:13:38;4.93;;;3.55;;
55362;SDS011;41244;49.242;9.060;2022-09-27T18:16:16;5.82;;;3.95;;
55362;SDS011;41244;49.242;9.060;2022-09-27T18:18:43;3.40;;;2.70;;
55362;SDS011;41244;49.242;9.060;2022-09-27T18:21:15;3.88;;;2.80;;
55362;SDS011;41244;49.242;9.060;2022-09-27T18:23:45;10.70;;;6.22;;
55362;SDS011;41244;49.242;9.060;2022-09-27T18:26:13;8.73;;;5.28;;